La Salle, Michigan
Current Conditions -  °F | °C
As of 11:14 AM on Thursday 29 Jan 2015 (Local Time) from KTTF Reporting Station
Overcast Overcast  
Wind Chill: 31°   Ceiling: 3600
Heat Index: 36°   Visibility: 10mi
Dew Point: 28°   Wind: 6mph
Humidity: 75%   Direction: 190°S
Pressure: 29.73"   Gusts: NA
Location:  41.87°N, 83.45°W
Report Text: KTTF 291614Z AUTO 19005KT 10SM OVC036 02/M02 A2973 RMK AO2
Loading
Personal Weather Stations






























Interactive Weather Map New forecast layout! Learn more

10-Day Weather Forecast

Advertisements
Track Severe Weather on mobile